sensor_id;sensor_type;location;lat;lon;timestamp;temperature;humidity
2967;DHT22;1493;51.496;7.210;2022-12-18T00:01:24;-5.70;99.90
2967;DHT22;1493;51.496;7.210;2022-12-18T00:03:52;-5.80;99.90
2967;DHT22;1493;51.496;7.210;2022-12-18T00:06:20;-5.70;99.90
2967;DHT22;1493;51.496;7.210;2022-12-18T00:08:48;-5.80;99.90
2967;DHT22;1493;51.496;7.210;2022-12-18T00:11:19;-5.80;99.90
2967;DHT22;1493;51.496;7.210;2022-12-18T00:13:46;-5.70;99.90
2967;DHT22;1493;51.496;7.210;2022-12-18T00:16:16;-5.70;99.90
2967;DHT22;1493;51.496;7.210;2022-12-18T00:18:46;-5.80;99.90
2967;DHT22;1493;51.496;7.210;2022-12-18T00:21:13;-5.80;99.90
2967;DHT22;1493;51.496;7.210;2022-12-18T00:23:42;-5.80;99.90
2967;DHT22;1493;51.496;7.210;2022-12-18T00:26:16;-5.90;99.90
2967;DHT22;1493;51.496;7.210;2022-12-18T00:28:44;-5.90;99.90
2967;DHT22;1493;51.496;7.210;2022-12-18T00:31:13;-5.80;99.90
2967;DHT22;1493;51.496;7.210;2022-12-18T00:33:40;-5.90;99.90
2967;DHT22;1493;51.496;7.210;2022-12-18T00:36:09;-5.90;99.90
2967;DHT22;1493;51.496;7.210;2022-12-18T00:38:36;-5.90;99.90
2967;DHT22;1493;51.496;7.210;2022-12-18T00:41:03;-5.90;99.90
2967;DHT22;1493;51.496;7.210;2022-12-18T00:43:34;-5.90;99.90
2967;DHT22;1493;51.496;7.210;2022-12-18T00:46:00;-6.00;99.90
2967;DHT22;1493;51.496;7.210;2022-12-18T00:48:27;-6.00;99.90
2967;DHT22;1493;51.496;7.210;2022-12-18T00:50:54;-6.00;99.90
2967;DHT22;1493;51.496;7.210;2022-12-18T00:53:21;-6.00;99.90
2967;DHT22;1493;51.496;7.210;2022-12-18T00:55:48;-6.00;99.90
2967;DHT22;1493;51.496;7.210;2022-12-18T00:58:16;-6.00;99.90
2967;DHT22;1493;51.496;7.210;2022-12-18T01:00:44;-6.10;99.90
2967;DHT22;1493;51.496;7.210;2022-12-18T01:03:13;-6.20;99.90
2967;DHT22;1493;51.496;7.210;2022-12-18T01:05:41;-6.20;99.90
2967;DHT22;1493;51.496;7.210;2022-12-18T01:08:08;-6.20;99.90
2967;DHT22;1493;51.496;7.210;2022-12-18T01:10:35;-6.30;99.90
2967;DHT22;1493;51.496;7.210;2022-12-18T01:13:02;-6.40;99.90
2967;DHT22;1493;51.496;7.210;2022-12-18T01:15:28;-6.30;99.90
2967;DHT22;1493;51.496;7.210;2022-12-18T01:17:56;-6.20;99.90
2967;DHT22;1493;51.496;7.210;2022-12-18T01:20:23;-6.20;99.90
2967;DHT22;1493;51.496;7.210;2022-12-18T01:22:50;-6.20;99.90
2967;DHT22;1493;51.496;7.210;2022-12-18T01:25:17;-6.20;99.90
2967;DHT22;1493;51.496;7.210;2022-12-18T01:27:44;-6.20;99.90
2967;DHT22;1493;51.496;7.210;2022-12-18T01:30:11;-6.20;99.90
2967;DHT22;1493;51.496;7.210;2022-12-18T01:32:38;-6.20;99.90
2967;DHT22;1493;51.496;7.210;2022-12-18T01:35:07;-6.20;99.90
2967;DHT22;1493;51.496;7.210;2022-12-18T01:37:34;-6.20;99.90
2967;DHT22;1493;51.496;7.210;2022-12-18T01:40:01;-6.20;99.90
2967;DHT22;1493;51.496;7.210;2022-12-18T01:42:28;-6.20;99.90
2967;DHT22;1493;51.496;7.210;2022-12-18T01:45:01;-6.20;99.90
2967;DHT22;1493;51.496;7.210;2022-12-18T01:47:32;-6.10;99.90
2967;DHT22;1493;51.496;7.210;2022-12-18T01:50:02;-6.20;99.90
2967;DHT22;1493;51.496;7.210;2022-12-18T01:52:31;-6.20;99.90
2967;DHT22;1493;51.496;7.210;2022-12-18T01:54:59;-6.20;99.90
2967;DHT22;1493;51.496;7.210;2022-12-18T01:57:27;-6.20;99.90
2967;DHT22;1493;51.496;7.210;2022-12-18T01:59:59;-6.20;99.90
2967;DHT22;1493;51.496;7.210;2022-12-18T02:02:28;-6.20;99.90
2967;DHT22;1493;51.496;7.210;2022-12-18T02:04:55;-6.20;99.90
2967;DHT22;1493;51.496;7.210;2022-12-18T02:07:26;-6.20;99.90
2967;DHT22;1493;51.496;7.210;2022-12-18T02:10:00;-6.20;99.90
2967;DHT22;1493;51.496;7.210;2022-12-18T02:12:33;-6.20;99.90
2967;DHT22;1493;51.496;7.210;2022-12-18T02:15:06;-6.20;99.90
2967;DHT22;1493;51.496;7.210;2022-12-18T02:17:37;-6.10;99.90
2967;DHT22;1493;51.496;7.210;2022-12-18T02:20:13;-6.10;99.90
2967;DHT22;1493;51.496;7.210;2022-12-18T02:22:50;-6.10;99.90
2967;DHT22;1493;51.496;7.210;2022-12-18T02:25:30;-6.10;99.90
2967;DHT22;1493;51.496;7.210;2022-12-18T02:28:04;-6.00;99.90
2967;DHT22;1493;51.496;7.210;2022-12-18T02:30:34;-6.00;99.90
2967;DHT22;1493;51.496;7.210;2022-12-18T02:33:04;-6.00;99.90
2967;DHT22;1493;51.496;7.210;2022-12-18T02:35:33;-6.10;99.90
2967;DHT22;1493;51.496;7.210;2022-12-18T02:38:02;-6.10;99.90
2967;DHT22;1493;51.496;7.210;2022-12-18T02:40:30;-6.10;99.90
2967;DHT22;1493;51.496;7.210;2022-12-18T02:43:06;-6.00;99.90
2967;DHT22;1493;51.496;7.210;2022-12-18T02:45:33;-6.00;99.90
2967;DHT22;1493;51.496;7.210;2022-12-18T02:48:01;-5.90;99.90
2967;DHT22;1493;51.496;7.210;2022-12-18T02:50:33;-5.90;99.90
2967;DHT22;1493;51.496;7.210;2022-12-18T02:53:12;-6.00;99.90
2967;DHT22;1493;51.496;7.210;2022-12-18T02:55:51;-6.00;99.90
2967;DHT22;1493;51.496;7.210;2022-12-18T02:58:27;-6.00;99.90
2967;DHT22;1493;51.496;7.210;2022-12-18T03:01:02;-6.00;99.90
2967;DHT22;1493;51.496;7.210;2022-12-18T03:03:35;-6.00;99.90
2967;DHT22;1493;51.496;7.210;2022-12-18T03:06:07;-6.00;99.90
2967;DHT22;1493;51.496;7.210;2022-12-18T03:08:38;-6.00;99.90
2967;DHT22;1493;51.496;7.210;2022-12-18T03:11:08;-6.00;99.90
2967;DHT22;1493;51.496;7.210;2022-12-18T03:13:39;-5.90;99.90
2967;DHT22;1493;51.496;7.210;2022-12-18T03:16:10;-5.90;99.90
2967;DHT22;1493;51.496;7.210;2022-12-18T03:18:42;-5.80;99.90
2967;DHT22;1493;51.496;7.210;2022-12-18T03:21:10;-5.80;99.90
2967;DHT22;1493;51.496;7.210;2022-12-18T03:23:41;-5.80;99.90
2967;DHT22;1493;51.496;7.210;2022-12-18T03:26:10;-5.80;99.90
2967;DHT22;1493;51.496;7.210;2022-12-18T03:28:45;-5.80;99.90
2967;DHT22;1493;51.496;7.210;2022-12-18T03:31:14;-5.80;99.90
2967;DHT22;1493;51.496;7.210;2022-12-18T03:33:45;-5.80;99.90
2967;DHT22;1493;51.496;7.210;2022-12-18T03:36:13;-5.70;99.90
2967;DHT22;1493;51.496;7.210;2022-12-18T03:38:40;-5.70;99.90
2967;DHT22;1493;51.496;7.210;2022-12-18T03:41:14;-5.80;99.90
2967;DHT22;1493;51.496;7.210;2022-12-18T03:43:50;-5.80;99.90
2967;DHT22;1493;51.496;7.210;2022-12-18T03:46:23;-5.70;99.90
2967;DHT22;1493;51.496;7.210;2022-12-18T03:48:54;-5.70;99.90
2967;DHT22;1493;51.496;7.210;2022-12-18T03:51:26;-5.70;99.90
2967;DHT22;1493;51.496;7.210;2022-12-18T03:53:57;-5.70;99.90
2967;DHT22;1493;51.496;7.210;2022-12-18T03:56:28;-5.70;99.90
2967;DHT22;1493;51.496;7.210;2022-12-18T03:58:58;-5.70;99.90
2967;DHT22;1493;51.496;7.210;2022-12-18T04:01:31;-5.70;99.90
2967;DHT22;1493;51.496;7.210;2022-12-18T04:04:00;-5.70;99.90
2967;DHT22;1493;51.496;7.210;2022-12-18T04:06:28;-5.70;99.90
2967;DHT22;1493;51.496;7.210;2022-12-18T04:08:56;-5.70;99.90
2967;DHT22;1493;51.496;7.210;2022-12-18T04:11:23;-5.70;99.90
2967;DHT22;1493;51.496;7.210;2022-12-18T04:13:50;-5.70;99.90
2967;DHT22;1493;51.496;7.210;2022-12-18T04:16:22;-5.70;99.90
2967;DHT22;1493;51.496;7.210;2022-12-18T04:18:49;-5.70;99.90
2967;DHT22;1493;51.496;7.210;2022-12-18T04:21:16;-5.70;99.90
2967;DHT22;1493;51.496;7.210;2022-12-18T04:23:43;-5.70;99.90
2967;DHT22;1493;51.496;7.210;2022-12-18T04:26:10;-5.70;99.90
2967;DHT22;1493;51.496;7.210;2022-12-18T04:28:36;-5.70;99.90
2967;DHT22;1493;51.496;7.210;2022-12-18T04:31:03;-5.80;99.90
2967;DHT22;1493;51.496;7.210;2022-12-18T04:33:32;-5.80;99.90
2967;DHT22;1493;51.496;7.210;2022-12-18T04:35:58;-5.80;99.90
2967;DHT22;1493;51.496;7.210;2022-12-18T04:38:25;-5.70;99.90
2967;DHT22;1493;51.496;7.210;2022-12-18T04:40:52;-5.80;99.90
2967;DHT22;1493;51.496;7.210;2022-12-18T04:43:19;-5.80;99.90
2967;DHT22;1493;51.496;7.210;2022-12-18T04:45:45;-5.90;99.90
2967;DHT22;1493;51.496;7.210;2022-12-18T04:48:12;-5.80;99.90
2967;DHT22;1493;51.496;7.210;2022-12-18T04:50:40;-5.80;99.90
2967;DHT22;1493;51.496;7.210;2022-12-18T04:53:07;-5.90;99.90
2967;DHT22;1493;51.496;7.210;2022-12-18T04:55:34;-5.90;99.90
2967;DHT22;1493;51.496;7.210;2022-12-18T04:58:01;-5.90;99.90
2967;DHT22;1493;51.496;7.210;2022-12-18T05:00:28;-5.90;99.90
2967;DHT22;1493;51.496;7.210;2022-12-18T05:02:54;-5.90;99.90
2967;DHT22;1493;51.496;7.210;2022-12-18T05:05:21;-5.90;99.90
2967;DHT22;1493;51.496;7.210;2022-12-18T05:07:49;-5.90;99.90
2967;DHT22;1493;51.496;7.210;2022-12-18T05:10:16;-5.90;99.90
2967;DHT22;1493;51.496;7.210;2022-12-18T05:12:43;-5.90;99.90
2967;DHT22;1493;51.496;7.210;2022-12-18T05:15:36;-5.90;99.90
2967;DHT22;1493;51.496;7.210;2022-12-18T05:18:03;-5.90;99.90
2967;DHT22;1493;51.496;7.210;2022-12-18T05:20:31;-5.90;99.90
2967;DHT22;1493;51.496;7.210;2022-12-18T05:22:58;-5.90;99.90
2967;DHT22;1493;51.496;7.210;2022-12-18T05:25:24;-5.90;99.90
2967;DHT22;1493;51.496;7.210;2022-12-18T05:27:51;-5.90;99.90
2967;DHT22;1493;51.496;7.210;2022-12-18T05:30:18;-6.00;99.90
2967;DHT22;1493;51.496;7.210;2022-12-18T05:32:46;-5.90;99.90
2967;DHT22;1493;51.496;7.210;2022-12-18T05:35:13;-6.00;99.90
2967;DHT22;1493;51.496;7.210;2022-12-18T05:37:39;-6.00;99.90
2967;DHT22;1493;51.496;7.210;2022-12-18T05:40:07;-6.00;99.90
2967;DHT22;1493;51.496;7.210;2022-12-18T05:42:34;-6.00;99.90
2967;DHT22;1493;51.496;7.210;2022-12-18T05:45:01;-6.00;99.90
2967;DHT22;1493;51.496;7.210;2022-12-18T05:47:28;-6.00;99.90
2967;DHT22;1493;51.496;7.210;2022-12-18T05:49:57;-6.10;99.90
2967;DHT22;1493;51.496;7.210;2022-12-18T05:52:24;-6.10;99.90
2967;DHT22;1493;51.496;7.210;2022-12-18T05:54:50;-6.20;99.90
2967;DHT22;1493;51.496;7.210;2022-12-18T05:57:17;-6.20;99.90
2967;DHT22;1493;51.496;7.210;2022-12-18T05:59:44;-6.20;99.90
2967;DHT22;1493;51.496;7.210;2022-12-18T06:02:11;-6.20;99.90
2967;DHT22;1493;51.496;7.210;2022-12-18T06:04:38;-6.20;99.90
2967;DHT22;1493;51.496;7.210;2022-12-18T06:07:06;-6.30;99.90
2967;DHT22;1493;51.496;7.210;2022-12-18T06:09:33;-6.30;99.90
2967;DHT22;1493;51.496;7.210;2022-12-18T06:11:59;-6.30;99.90
2967;DHT22;1493;51.496;7.210;2022-12-18T06:14:26;-6.30;99.90
2967;DHT22;1493;51.496;7.210;2022-12-18T06:16:53;-6.30;99.90
2967;DHT22;1493;51.496;7.210;2022-12-18T06:19:20;-6.30;99.90
2967;DHT22;1493;51.496;7.210;2022-12-18T06:21:47;-6.30;99.90
2967;DHT22;1493;51.496;7.210;2022-12-18T06:24:16;-6.30;99.90
2967;DHT22;1493;51.496;7.210;2022-12-18T06:26:42;-6.30;99.90
2967;DHT22;1493;51.496;7.210;2022-12-18T06:31:47;-6.30;99.90
2967;DHT22;1493;51.496;7.210;2022-12-18T06:34:15;-6.30;99.90
2967;DHT22;1493;51.496;7.210;2022-12-18T06:36:42;-6.40;99.90
2967;DHT22;1493;51.496;7.210;2022-12-18T06:39:09;-6.50;99.90
2967;DHT22;1493;51.496;7.210;2022-12-18T06:41:37;-6.50;99.90
2967;DHT22;1493;51.496;7.210;2022-12-18T06:44:04;-6.50;99.90
2967;DHT22;1493;51.496;7.210;2022-12-18T06:46:31;-6.40;99.90
2967;DHT22;1493;51.496;7.210;2022-12-18T06:48:58;-6.40;99.90
2967;DHT22;1493;51.496;7.210;2022-12-18T06:51:25;-6.40;99.90
2967;DHT22;1493;51.496;7.210;2022-12-18T06:53:52;-6.50;99.90
2967;DHT22;1493;51.496;7.210;2022-12-18T06:56:19;-6.60;99.90
2967;DHT22;1493;51.496;7.210;2022-12-18T06:58:49;-6.50;99.90
2967;DHT22;1493;51.496;7.210;2022-12-18T07:01:16;-6.50;99.90
2967;DHT22;1493;51.496;7.210;2022-12-18T07:03:43;-6.50;99.90
2967;DHT22;1493;51.496;7.210;2022-12-18T07:06:13;-6.50;99.90
2967;DHT22;1493;51.496;7.210;2022-12-18T07:08:41;-6.50;99.90
2967;DHT22;1493;51.496;7.210;2022-12-18T07:11:08;-6.50;99.90
2967;DHT22;1493;51.496;7.210;2022-12-18T07:13:35;-6.50;99.90
2967;DHT22;1493;51.496;7.210;2022-12-18T07:16:08;-6.50;99.90
2967;DHT22;1493;51.496;7.210;2022-12-18T07:18:35;-6.60;99.90
2967;DHT22;1493;51.496;7.210;2022-12-18T07:21:04;-6.60;99.90
2967;DHT22;1493;51.496;7.210;2022-12-18T07:23:32;-6.60;99.90
2967;DHT22;1493;51.496;7.210;2022-12-18T07:26:01;-6.50;99.90
2967;DHT22;1493;51.496;7.210;2022-12-18T07:28:29;-6.50;99.90
2967;DHT22;1493;51.496;7.210;2022-12-18T07:30:56;-6.50;99.90
2967;DHT22;1493;51.496;7.210;2022-12-18T07:33:24;-6.60;99.90
2967;DHT22;1493;51.496;7.210;2022-12-18T07:35:51;-6.50;99.90
2967;DHT22;1493;51.496;7.210;2022-12-18T07:38:17;-6.50;99.90
2967;DHT22;1493;51.496;7.210;2022-12-18T07:40:44;-6.50;99.90
2967;DHT22;1493;51.496;7.210;2022-12-18T07:43:11;-6.50;99.90
2967;DHT22;1493;51.496;7.210;2022-12-18T07:45:38;-6.60;99.90
2967;DHT22;1493;51.496;7.210;2022-12-18T07:48:05;-6.60;99.90
2967;DHT22;1493;51.496;7.210;2022-12-18T07:50:33;-6.60;99.90
2967;DHT22;1493;51.496;7.210;2022-12-18T07:53:00;-6.50;99.90
2967;DHT22;1493;51.496;7.210;2022-12-18T07:55:28;-6.40;99.90
2967;DHT22;1493;51.496;7.210;2022-12-18T07:57:55;-6.40;99.90
2967;DHT22;1493;51.496;7.210;2022-12-18T08:00:22;-6.40;99.90
2967;DHT22;1493;51.496;7.210;2022-12-18T08:02:49;-6.40;99.90
2967;DHT22;1493;51.496;7.210;2022-12-18T08:05:16;-6.30;99.90
2967;DHT22;1493;51.496;7.210;2022-12-18T08:07:44;-6.20;99.90
2967;DHT22;1493;51.496;7.210;2022-12-18T08:10:12;-6.10;99.90
2967;DHT22;1493;51.496;7.210;2022-12-18T08:12:39;-6.10;99.90
2967;DHT22;1493;51.496;7.210;2022-12-18T08:15:07;-6.00;99.90
2967;DHT22;1493;51.496;7.210;2022-12-18T08:17:34;-5.90;99.90
2967;DHT22;1493;51.496;7.210;2022-12-18T08:20:01;-5.80;99.90
2967;DHT22;1493;51.496;7.210;2022-12-18T08:22:27;-5.70;99.90
2967;DHT22;1493;51.496;7.210;2022-12-18T08:24:55;-5.70;99.90
2967;DHT22;1493;51.496;7.210;2022-12-18T08:27:22;-5.80;99.90
2967;DHT22;1493;51.496;7.210;2022-12-18T08:29:49;-5.80;99.90
2967;DHT22;1493;51.496;7.210;2022-12-18T08:32:16;-5.70;99.90
2967;DHT22;1493;51.496;7.210;2022-12-18T08:34:42;-5.60;99.90
2967;DHT22;1493;51.496;7.210;2022-12-18T08:37:09;-5.50;99.90
2967;DHT22;1493;51.496;7.210;2022-12-18T08:39:36;-5.50;99.90
2967;DHT22;1493;51.496;7.210;2022-12-18T08:42:04;-5.50;99.90
2967;DHT22;1493;51.496;7.210;2022-12-18T08:44:49;-5.30;99.90
2967;DHT22;1493;51.496;7.210;2022-12-18T08:47:17;-5.20;99.90
2967;DHT22;1493;51.496;7.210;2022-12-18T08:49:44;-5.10;99.90
2967;DHT22;1493;51.496;7.210;2022-12-18T08:52:10;-5.00;99.90
2967;DHT22;1493;51.496;7.210;2022-12-18T08:54:37;-4.90;99.90
2967;DHT22;1493;51.496;7.210;2022-12-18T08:57:05;-4.80;99.90
2967;DHT22;1493;51.496;7.210;2022-12-18T08:59:32;-4.70;99.90
2967;DHT22;1493;51.496;7.210;2022-12-18T09:01:59;-4.60;99.90
2967;DHT22;1493;51.496;7.210;2022-12-18T09:04:26;-4.40;99.90
2967;DHT22;1493;51.496;7.210;2022-12-18T09:06:56;-4.40;99.90
2967;DHT22;1493;51.496;7.210;2022-12-18T09:09:22;-4.30;99.90
2967;DHT22;1493;51.496;7.210;2022-12-18T09:11:49;-4.30;99.90
2967;DHT22;1493;51.496;7.210;2022-12-18T09:14:18;-4.20;99.90
2967;DHT22;1493;51.496;7.210;2022-12-18T09:16:45;-4.00;99.90
2967;DHT22;1493;51.496;7.210;2022-12-18T09:19:12;-3.80;99.90
2967;DHT22;1493;51.496;7.210;2022-12-18T09:21:40;-3.60;99.90
2967;DHT22;1493;51.496;7.210;2022-12-18T09:24:12;-3.50;99.90
2967;DHT22;1493;51.496;7.210;2022-12-18T09:26:42;-3.40;99.90
2967;DHT22;1493;51.496;7.210;2022-12-18T09:29:09;-3.30;99.90
2967;DHT22;1493;51.496;7.210;2022-12-18T09:31:38;-3.10;99.90
2967;DHT22;1493;51.496;7.210;2022-12-18T09:34:05;-3.10;99.90
2967;DHT22;1493;51.496;7.210;2022-12-18T09:36:32;-3.00;99.90
2967;DHT22;1493;51.496;7.210;2022-12-18T09:38:58;-3.00;99.90
2967;DHT22;1493;51.496;7.210;2022-12-18T09:41:35;-2.90;99.90
2967;DHT22;1493;51.496;7.210;2022-12-18T09:44:12;-2.80;99.90
2967;DHT22;1493;51.496;7.210;2022-12-18T09:46:45;-2.60;99.90
2967;DHT22;1493;51.496;7.210;2022-12-18T09:49:18;-2.50;99.90
2967;DHT22;1493;51.496;7.210;2022-12-18T09:51:52;-2.40;99.90
2967;DHT22;1493;51.496;7.210;2022-12-18T09:54:22;-2.30;99.90
2967;DHT22;1493;51.496;7.210;2022-12-18T09:56:51;-2.10;99.90
2967;DHT22;1493;51.496;7.210;2022-12-18T09:59:22;-2.10;99.90
2967;DHT22;1493;51.496;7.210;2022-12-18T10:01:52;-1.80;99.90
2967;DHT22;1493;51.496;7.210;2022-12-18T10:04:19;-1.60;99.90
2967;DHT22;1493;51.496;7.210;2022-12-18T10:06:51;-1.40;99.90
2967;DHT22;1493;51.496;7.210;2022-12-18T10:09:27;-1.20;99.90
2967;DHT22;1493;51.496;7.210;2022-12-18T10:12:02;-1.10;99.90
2967;DHT22;1493;51.496;7.210;2022-12-18T10:14:36;-0.90;99.90
2967;DHT22;1493;51.496;7.210;2022-12-18T10:17:16;-0.90;99.90
2967;DHT22;1493;51.496;7.210;2022-12-18T10:19:47;-0.60;99.90
2967;DHT22;1493;51.496;7.210;2022-12-18T10:22:23;-0.40;99.90
2967;DHT22;1493;51.496;7.210;2022-12-18T10:24:57;-0.30;99.90
2967;DHT22;1493;51.496;7.210;2022-12-18T10:27:27;0.00;99.90
2967;DHT22;1493;51.496;7.210;2022-12-18T10:29:55;0.20;99.90
2967;DHT22;1493;51.496;7.210;2022-12-18T10:32:26;0.40;99.90
2967;DHT22;1493;51.496;7.210;2022-12-18T10:34:55;0.50;99.90
2967;DHT22;1493;51.496;7.210;2022-12-18T10:37:24;0.60;99.90
2967;DHT22;1493;51.496;7.210;2022-12-18T10:40:11;0.80;99.90
2967;DHT22;1493;51.496;7.210;2022-12-18T10:42:38;1.10;99.90
2967;DHT22;1493;51.496;7.210;2022-12-18T10:45:10;1.20;99.90
2967;DHT22;1493;51.496;7.210;2022-12-18T10:47:42;1.50;99.90
2967;DHT22;1493;51.496;7.210;2022-12-18T10:50:20;1.60;99.90
2967;DHT22;1493;51.496;7.210;2022-12-18T10:52:55;1.80;99.90
2967;DHT22;1493;51.496;7.210;2022-12-18T10:55:22;1.80;99.90
2967;DHT22;1493;51.496;7.210;2022-12-18T10:57:52;2.00;99.90
2967;DHT22;1493;51.496;7.210;2022-12-18T11:00:26;2.10;99.90
2967;DHT22;1493;51.496;7.210;2022-12-18T11:02:56;2.30;99.90
2967;DHT22;1493;51.496;7.210;2022-12-18T11:05:26;2.40;99.90
2967;DHT22;1493;51.496;7.210;2022-12-18T11:07:54;2.40;99.90
2967;DHT22;1493;51.496;7.210;2022-12-18T11:10:25;2.40;99.90
2967;DHT22;1493;51.496;7.210;2022-12-18T11:12:52;2.40;99.90
2967;DHT22;1493;51.496;7.210;2022-12-18T11:15:20;2.50;99.90
2967;DHT22;1493;51.496;7.210;2022-12-18T11:17:49;2.60;99.90
2967;DHT22;1493;51.496;7.210;2022-12-18T11:20:27;2.70;99.90
2967;DHT22;1493;51.496;7.210;2022-12-18T11:22:58;2.80;99.90
2967;DHT22;1493;51.496;7.210;2022-12-18T11:25:28;2.90;99.90
2967;DHT22;1493;51.496;7.210;2022-12-18T11:27:57;2.90;99.90
2967;DHT22;1493;51.496;7.210;2022-12-18T11:30:26;2.90;99.90
2967;DHT22;1493;51.496;7.210;2022-12-18T11:33:00;3.00;99.90
2967;DHT22;1493;51.496;7.210;2022-12-18T11:35:37;3.00;99.90
2967;DHT22;1493;51.496;7.210;2022-12-18T11:38:10;3.10;99.90
2967;DHT22;1493;51.496;7.210;2022-12-18T11:40:42;3.10;99.90
2967;DHT22;1493;51.496;7.210;2022-12-18T11:43:13;3.10;99.90
2967;DHT22;1493;51.496;7.210;2022-12-18T11:45:47;3.10;99.90
2967;DHT22;1493;51.496;7.210;2022-12-18T11:48:18;3.10;99.90
2967;DHT22;1493;51.496;7.210;2022-12-18T11:50:51;3.10;99.90
2967;DHT22;1493;51.496;7.210;2022-12-18T11:53:19;3.00;99.90
2967;DHT22;1493;51.496;7.210;2022-12-18T11:55:53;3.00;99.90
2967;DHT22;1493;51.496;7.210;2022-12-18T11:58:38;3.00;99.90
2967;DHT22;1493;51.496;7.210;2022-12-18T12:01:15;2.90;99.90
2967;DHT22;1493;51.496;7.210;2022-12-18T12:04:01;2.90;99.90
2967;DHT22;1493;51.496;7.210;2022-12-18T12:06:35;2.90;99.90
2967;DHT22;1493;51.496;7.210;2022-12-18T12:09:14;3.00;99.90
2967;DHT22;1493;51.496;7.210;2022-12-18T12:11:58;3.00;99.90
2967;DHT22;1493;51.496;7.210;2022-12-18T12:14:39;3.10;99.90
2967;DHT22;1493;51.496;7.210;2022-12-18T12:17:15;3.00;99.90
2967;DHT22;1493;51.496;7.210;2022-12-18T12:19:50;3.00;99.90
2967;DHT22;1493;51.496;7.210;2022-12-18T12:22:26;3.00;99.90
2967;DHT22;1493;51.496;7.210;2022-12-18T12:25:07;3.00;99.90
2967;DHT22;1493;51.496;7.210;2022-12-18T12:27:45;3.00;99.90
2967;DHT22;1493;51.496;7.210;2022-12-18T12:30:20;3.10;99.90
2967;DHT22;1493;51.496;7.210;2022-12-18T12:33:01;3.10;99.90
2967;DHT22;1493;51.496;7.210;2022-12-18T12:35:38;3.10;99.90
2967;DHT22;1493;51.496;7.210;2022-12-18T12:38:12;3.00;99.90
2967;DHT22;1493;51.496;7.210;2022-12-18T12:40:45;3.10;99.90
2967;DHT22;1493;51.496;7.210;2022-12-18T12:43:22;3.00;99.90
2967;DHT22;1493;51.496;7.210;2022-12-18T12:45:53;2.90;99.90
2967;DHT22;1493;51.496;7.210;2022-12-18T12:48:37;2.70;99.90
2967;DHT22;1493;51.496;7.210;2022-12-18T12:51:11;2.80;99.90
2967;DHT22;1493;51.496;7.210;2022-12-18T12:53:40;2.70;99.90
2967;DHT22;1493;51.496;7.210;2022-12-18T12:56:09;2.80;99.90
2967;DHT22;1493;51.496;7.210;2022-12-18T12:58:45;2.80;99.90
2967;DHT22;1493;51.496;7.210;2022-12-18T13:01:19;2.80;99.90
2967;DHT22;1493;51.496;7.210;2022-12-18T13:03:56;2.90;99.90
2967;DHT22;1493;51.496;7.210;2022-12-18T13:06:33;3.00;99.90
2967;DHT22;1493;51.496;7.210;2022-12-18T13:09:04;3.00;99.90
2967;DHT22;1493;51.496;7.210;2022-12-18T13:11:38;2.90;99.90
2967;DHT22;1493;51.496;7.210;2022-12-18T13:14:28;2.90;99.90
2967;DHT22;1493;51.496;7.210;2022-12-18T13:17:17;3.00;99.90
2967;DHT22;1493;51.496;7.210;2022-12-18T13:19:51;2.80;99.90
2967;DHT22;1493;51.496;7.210;2022-12-18T13:22:23;2.80;99.90
2967;DHT22;1493;51.496;7.210;2022-12-18T13:24:51;2.90;99.90
2967;DHT22;1493;51.496;7.210;2022-12-18T13:30:46;2.90;99.90
2967;DHT22;1493;51.496;7.210;2022-12-18T13:33:42;2.80;99.90
2967;DHT22;1493;51.496;7.210;2022-12-18T13:36:14;2.90;99.90
2967;DHT22;1493;51.496;7.210;2022-12-18T13:38:42;2.90;99.90
2967;DHT22;1493;51.496;7.210;2022-12-18T13:41:25;2.90;99.90
2967;DHT22;1493;51.496;7.210;2022-12-18T13:43:53;3.00;99.90
2967;DHT22;1493;51.496;7.210;2022-12-18T13:46:22;3.10;99.90
2967;DHT22;1493;51.496;7.210;2022-12-18T13:48:57;3.10;99.90
2967;DHT22;1493;51.496;7.210;2022-12-18T13:51:25;3.10;99.90
2967;DHT22;1493;51.496;7.210;2022-12-18T13:53:55;3.20;99.90
2967;DHT22;1493;51.496;7.210;2022-12-18T13:56:27;3.20;99.90
2967;DHT22;1493;51.496;7.210;2022-12-18T13:59:14;3.00;99.90
2967;DHT22;1493;51.496;7.210;2022-12-18T14:01:52;2.90;99.90
2967;DHT22;1493;51.496;7.210;2022-12-18T14:04:27;2.90;99.90
2967;DHT22;1493;51.496;7.210;2022-12-18T14:07:02;2.80;99.90
2967;DHT22;1493;51.496;7.210;2022-12-18T14:09:33;2.80;99.90
2967;DHT22;1493;51.496;7.210;2022-12-18T14:12:03;2.80;99.90
2967;DHT22;1493;51.496;7.210;2022-12-18T14:14:46;2.80;99.90
2967;DHT22;1493;51.496;7.210;2022-12-18T14:17:14;2.70;99.90
2967;DHT22;1493;51.496;7.210;2022-12-18T14:19:43;2.80;99.90
2967;DHT22;1493;51.496;7.210;2022-12-18T14:22:19;2.70;99.90
2967;DHT22;1493;51.496;7.210;2022-12-18T14:24:47;2.70;99.90
2967;DHT22;1493;51.496;7.210;2022-12-18T14:27:23;2.70;99.90
2967;DHT22;1493;51.496;7.210;2022-12-18T14:29:51;2.70;99.90
2967;DHT22;1493;51.496;7.210;2022-12-18T14:32:19;2.60;99.90
2967;DHT22;1493;51.496;7.210;2022-12-18T14:34:48;2.60;99.90
2967;DHT22;1493;51.496;7.210;2022-12-18T14:37:17;2.50;99.90
2967;DHT22;1493;51.496;7.210;2022-12-18T14:39:55;2.50;99.90
2967;DHT22;1493;51.496;7.210;2022-12-18T14:42:24;2.50;99.90
2967;DHT22;1493;51.496;7.210;2022-12-18T14:47:54;2.40;99.90
2967;DHT22;1493;51.496;7.210;2022-12-18T14:50:21;2.40;99.90
2967;DHT22;1493;51.496;7.210;2022-12-18T14:52:50;2.40;99.90
2967;DHT22;1493;51.496;7.210;2022-12-18T14:55:18;2.40;99.90
2967;DHT22;1493;51.496;7.210;2022-12-18T14:57:50;2.40;99.90
2967;DHT22;1493;51.496;7.210;2022-12-18T15:00:20;2.40;99.90
2967;DHT22;1493;51.496;7.210;2022-12-18T15:02:50;2.40;99.90
2967;DHT22;1493;51.496;7.210;2022-12-18T15:05:20;2.30;99.90
2967;DHT22;1493;51.496;7.210;2022-12-18T15:07:49;2.30;99.90
2967;DHT22;1493;51.496;7.210;2022-12-18T15:10:18;2.30;99.90
2967;DHT22;1493;51.496;7.210;2022-12-18T15:12:47;2.30;99.90
2967;DHT22;1493;51.496;7.210;2022-12-18T15:15:47;2.20;99.90
2967;DHT22;1493;51.496;7.210;2022-12-18T15:18:18;2.20;99.90
2967;DHT22;1493;51.496;7.210;2022-12-18T15:20:46;2.20;99.90
2967;DHT22;1493;51.496;7.210;2022-12-18T15:23:17;2.20;99.90
2967;DHT22;1493;51.496;7.210;2022-12-18T15:25:45;2.20;99.90
2967;DHT22;1493;51.496;7.210;2022-12-18T15:28:22;2.20;99.90
2967;DHT22;1493;51.496;7.210;2022-12-18T15:31:22;2.20;99.90
2967;DHT22;1493;51.496;7.210;2022-12-18T15:34:11;2.20;99.90
2967;DHT22;1493;51.496;7.210;2022-12-18T15:36:38;2.20;99.90
2967;DHT22;1493;51.496;7.210;2022-12-18T15:39:05;2.10;99.90
2967;DHT22;1493;51.496;7.210;2022-12-18T15:41:33;2.10;99.90
2967;DHT22;1493;51.496;7.210;2022-12-18T15:44:01;2.10;99.90
2967;DHT22;1493;51.496;7.210;2022-12-18T15:46:28;2.10;99.90
2967;DHT22;1493;51.496;7.210;2022-12-18T15:48:57;2.10;99.90
2967;DHT22;1493;51.496;7.210;2022-12-18T15:51:26;2.00;99.90
2967;DHT22;1493;51.496;7.210;2022-12-18T15:53:56;2.00;99.90
2967;DHT22;1493;51.496;7.210;2022-12-18T15:56:24;2.00;99.90
2967;DHT22;1493;51.496;7.210;2022-12-18T15:59:12;1.90;99.90
2967;DHT22;1493;51.496;7.210;2022-12-18T16:01:39;2.00;99.90
2967;DHT22;1493;51.496;7.210;2022-12-18T16:04:09;2.00;99.90
2967;DHT22;1493;51.496;7.210;2022-12-18T16:06:37;2.00;99.90
2967;DHT22;1493;51.496;7.210;2022-12-18T16:09:04;2.00;99.90
2967;DHT22;1493;51.496;7.210;2022-12-18T16:11:32;2.00;99.90
2967;DHT22;1493;51.496;7.210;2022-12-18T16:14:16;2.00;99.90
2967;DHT22;1493;51.496;7.210;2022-12-18T16:16:43;2.00;99.90
2967;DHT22;1493;51.496;7.210;2022-12-18T16:19:10;2.00;99.90
2967;DHT22;1493;51.496;7.210;2022-12-18T16:21:37;1.90;99.90
2967;DHT22;1493;51.496;7.210;2022-12-18T16:24:05;1.90;99.90
2967;DHT22;1493;51.496;7.210;2022-12-18T16:26:31;1.90;99.90
2967;DHT22;1493;51.496;7.210;2022-12-18T16:28:58;1.90;99.90
2967;DHT22;1493;51.496;7.210;2022-12-18T16:31:26;1.90;99.90
2967;DHT22;1493;51.496;7.210;2022-12-18T16:34:12;1.90;99.90
2967;DHT22;1493;51.496;7.210;2022-12-18T16:36:39;1.80;99.90